sensor_id;sensor_type;location;lat;lon;timestamp;temperature;humidity
67157;SHT31;54086;50.126;8.710;2022-07-06T00:01:32;19.74;53.46
67157;SHT31;54086;50.126;8.710;2022-07-06T00:03:58;19.77;53.60
67157;SHT31;54086;50.126;8.710;2022-07-06T00:06:23;19.74;53.72
67157;SHT31;54086;50.126;8.710;2022-07-06T00:08:49;19.62;54.03
67157;SHT31;54086;50.126;8.710;2022-07-06T00:11:15;19.60;54.31
67157;SHT31;54086;50.126;8.710;2022-07-06T00:13:41;19.54;54.54
67157;SHT31;54086;50.126;8.710;2022-07-06T00:16:07;19.50;54.73
67157;SHT31;54086;50.126;8.710;2022-07-06T00:18:32;19.44;54.92
67157;SHT31;54086;50.126;8.710;2022-07-06T00:20:57;19.34;55.08
67157;SHT31;54086;50.126;8.710;2022-07-06T00:23:23;19.35;55.24
67157;SHT31;54086;50.126;8.710;2022-07-06T00:25:49;19.34;55.43
67157;SHT31;54086;50.126;8.710;2022-07-06T00:28:15;19.38;55.49
67157;SHT31;54086;50.126;8.710;2022-07-06T00:30:41;19.34;55.64
67157;SHT31;54086;50.126;8.710;2022-07-06T00:33:06;19.31;55.79
67157;SHT31;54086;50.126;8.710;2022-07-06T00:35:32;19.35;55.87
67157;SHT31;54086;50.126;8.710;2022-07-06T00:37:57;19.30;56.03
67157;SHT31;54086;50.126;8.710;2022-07-06T00:40:23;19.33;56.26
67157;SHT31;54086;50.126;8.710;2022-07-06T00:42:48;19.21;56.61
67157;SHT31;54086;50.126;8.710;2022-07-06T00:45:15;19.17;56.83
67157;SHT31;54086;50.126;8.710;2022-07-06T00:47:41;19.19;56.87
67157;SHT31;54086;50.126;8.710;2022-07-06T00:50:08;19.13;57.13
67157;SHT31;54086;50.126;8.710;2022-07-06T00:55:19;19.13;57.42
67157;SHT31;54086;50.126;8.710;2022-07-06T00:57:46;19.07;57.48
67157;SHT31;54086;50.126;8.710;2022-07-06T01:00:14;19.09;57.62
67157;SHT31;54086;50.126;8.710;2022-07-06T01:02:41;19.10;57.72
67157;SHT31;54086;50.126;8.710;2022-07-06T01:05:08;19.09;57.83
67157;SHT31;54086;50.126;8.710;2022-07-06T01:07:35;19.09;57.87
67157;SHT31;54086;50.126;8.710;2022-07-06T01:10:03;19.06;58.01
67157;SHT31;54086;50.126;8.710;2022-07-06T01:12:29;19.10;58.18
67157;SHT31;54086;50.126;8.710;2022-07-06T01:14:54;18.96;58.44
67157;SHT31;54086;50.126;8.710;2022-07-06T01:17:20;18.95;58.67
67157;SHT31;54086;50.126;8.710;2022-07-06T01:19:46;18.99;58.62
67157;SHT31;54086;50.126;8.710;2022-07-06T01:22:11;18.89;58.86
67157;SHT31;54086;50.126;8.710;2022-07-06T01:24:37;18.82;59.12
67157;SHT31;54086;50.126;8.710;2022-07-06T01:27:04;18.83;59.12
67157;SHT31;54086;50.126;8.710;2022-07-06T01:29:30;18.92;59.03
67157;SHT31;54086;50.126;8.710;2022-07-06T01:31:56;18.85;59.28
67157;SHT31;54086;50.126;8.710;2022-07-06T01:34:21;18.73;59.46
67157;SHT31;54086;50.126;8.710;2022-07-06T01:36:47;18.58;59.91
67157;SHT31;54086;50.126;8.710;2022-07-06T01:39:12;18.61;60.11
67157;SHT31;54086;50.126;8.710;2022-07-06T01:41:38;18.62;60.12
67157;SHT31;54086;50.126;8.710;2022-07-06T01:44:04;18.65;60.24
67157;SHT31;54086;50.126;8.710;2022-07-06T01:46:30;18.62;60.07
67157;SHT31;54086;50.126;8.710;2022-07-06T01:48:56;18.56;60.40
67157;SHT31;54086;50.126;8.710;2022-07-06T01:51:22;18.61;60.39
67157;SHT31;54086;50.126;8.710;2022-07-06T01:53:48;18.53;60.65
67157;SHT31;54086;50.126;8.710;2022-07-06T01:56:13;18.51;60.62
67157;SHT31;54086;50.126;8.710;2022-07-06T01:58:39;18.55;60.62
67157;SHT31;54086;50.126;8.710;2022-07-06T02:01:19;18.49;60.82
67157;SHT31;54086;50.126;8.710;2022-07-06T02:03:45;18.49;60.93
67157;SHT31;54086;50.126;8.710;2022-07-06T02:06:11;18.40;61.21
67157;SHT31;54086;50.126;8.710;2022-07-06T02:08:40;18.28;61.43
67157;SHT31;54086;50.126;8.710;2022-07-06T02:11:07;18.31;61.61
67157;SHT31;54086;50.126;8.710;2022-07-06T02:13:33;18.24;61.78
67157;SHT31;54086;50.126;8.710;2022-07-06T02:15:59;18.14;62.04
67157;SHT31;54086;50.126;8.710;2022-07-06T02:18:24;18.25;61.89
67157;SHT31;54086;50.126;8.710;2022-07-06T02:20:50;18.24;61.97
67157;SHT31;54086;50.126;8.710;2022-07-06T02:23:15;18.10;62.26
67157;SHT31;54086;50.126;8.710;2022-07-06T02:25:40;18.17;62.18
67157;SHT31;54086;50.126;8.710;2022-07-06T02:28:06;18.25;62.00
67157;SHT31;54086;50.126;8.710;2022-07-06T02:30:31;18.17;62.26
67157;SHT31;54086;50.126;8.710;2022-07-06T02:32:57;18.03;62.79
67157;SHT31;54086;50.126;8.710;2022-07-06T02:35:22;17.98;62.82
67157;SHT31;54086;50.126;8.710;2022-07-06T02:37:47;17.89;63.08
67157;SHT31;54086;50.126;8.710;2022-07-06T02:40:13;17.84;63.35
67157;SHT31;54086;50.126;8.710;2022-07-06T02:42:39;17.96;63.21
67157;SHT31;54086;50.126;8.710;2022-07-06T02:45:05;17.94;63.05
67157;SHT31;54086;50.126;8.710;2022-07-06T02:47:30;17.97;62.99
67157;SHT31;54086;50.126;8.710;2022-07-06T02:49:56;18.01;62.80
67157;SHT31;54086;50.126;8.710;2022-07-06T02:52:21;17.90;63.10
67157;SHT31;54086;50.126;8.710;2022-07-06T02:54:47;17.80;63.53
67157;SHT31;54086;50.126;8.710;2022-07-06T02:57:14;17.83;63.32
67157;SHT31;54086;50.126;8.710;2022-07-06T02:59:39;17.70;63.69
67157;SHT31;54086;50.126;8.710;2022-07-06T03:02:05;17.74;63.22
67157;SHT31;54086;50.126;8.710;2022-07-06T03:04:30;17.62;63.66
67157;SHT31;54086;50.126;8.710;2022-07-06T03:06:55;17.56;63.90
67157;SHT31;54086;50.126;8.710;2022-07-06T03:09:21;17.59;63.52
67157;SHT31;54086;50.126;8.710;2022-07-06T03:11:46;17.54;63.59
67157;SHT31;54086;50.126;8.710;2022-07-06T03:14:12;17.56;63.34
67157;SHT31;54086;50.126;8.710;2022-07-06T03:16:37;17.54;63.22
67157;SHT31;54086;50.126;8.710;2022-07-06T03:19:03;17.45;63.54
67157;SHT31;54086;50.126;8.710;2022-07-06T03:21:28;17.50;63.40
67157;SHT31;54086;50.126;8.710;2022-07-06T03:23:53;17.47;63.11
67157;SHT31;54086;50.126;8.710;2022-07-06T03:26:19;17.56;62.85
67157;SHT31;54086;50.126;8.710;2022-07-06T03:28:44;17.52;62.80
67157;SHT31;54086;50.126;8.710;2022-07-06T03:31:10;17.43;62.86
67157;SHT31;54086;50.126;8.710;2022-07-06T03:33:35;17.42;63.11
67157;SHT31;54086;50.126;8.710;2022-07-06T03:36:00;17.52;62.71
67157;SHT31;54086;50.126;8.710;2022-07-06T03:38:26;17.33;62.95
67157;SHT31;54086;50.126;8.710;2022-07-06T03:40:51;17.23;63.33
67157;SHT31;54086;50.126;8.710;2022-07-06T03:43:16;17.22;63.31
67157;SHT31;54086;50.126;8.710;2022-07-06T03:45:42;17.22;63.26
67157;SHT31;54086;50.126;8.710;2022-07-06T03:48:08;17.19;63.12
67157;SHT31;54086;50.126;8.710;2022-07-06T03:50:34;17.02;63.58
67157;SHT31;54086;50.126;8.710;2022-07-06T03:52:59;17.07;63.43
67157;SHT31;54086;50.126;8.710;2022-07-06T03:55:24;17.11;63.37
67157;SHT31;54086;50.126;8.710;2022-07-06T03:57:50;17.07;63.42
67157;SHT31;54086;50.126;8.710;2022-07-06T04:00:15;17.01;63.60
67157;SHT31;54086;50.126;8.710;2022-07-06T04:02:41;17.02;63.79
67157;SHT31;54086;50.126;8.710;2022-07-06T04:05:07;17.04;63.71
67157;SHT31;54086;50.126;8.710;2022-07-06T04:07:33;17.04;63.69
67157;SHT31;54086;50.126;8.710;2022-07-06T04:09:58;17.01;63.82
67157;SHT31;54086;50.126;8.710;2022-07-06T04:12:23;17.10;63.65
67157;SHT31;54086;50.126;8.710;2022-07-06T04:14:49;17.11;63.43
67157;SHT31;54086;50.126;8.710;2022-07-06T04:17:14;16.95;63.99
67157;SHT31;54086;50.126;8.710;2022-07-06T04:19:58;17.10;63.90
67157;SHT31;54086;50.126;8.710;2022-07-06T04:22:23;16.98;64.01
67157;SHT31;54086;50.126;8.710;2022-07-06T04:24:49;17.08;64.09
67157;SHT31;54086;50.126;8.710;2022-07-06T04:27:14;17.15;63.69
67157;SHT31;54086;50.126;8.710;2022-07-06T04:29:40;17.07;64.12
67157;SHT31;54086;50.126;8.710;2022-07-06T04:32:05;17.02;64.16
67157;SHT31;54086;50.126;8.710;2022-07-06T04:34:31;17.07;64.28
67157;SHT31;54086;50.126;8.710;2022-07-06T04:36:56;17.04;64.31
67157;SHT31;54086;50.126;8.710;2022-07-06T04:39:22;17.05;64.30
67157;SHT31;54086;50.126;8.710;2022-07-06T04:41:47;17.02;64.77
67157;SHT31;54086;50.126;8.710;2022-07-06T04:44:12;17.11;64.28
67157;SHT31;54086;50.126;8.710;2022-07-06T04:46:38;17.18;64.14
67157;SHT31;54086;50.126;8.710;2022-07-06T04:49:03;17.15;64.17
67157;SHT31;54086;50.126;8.710;2022-07-06T04:51:28;16.92;64.82
67157;SHT31;54086;50.126;8.710;2022-07-06T04:53:54;17.07;65.06
67157;SHT31;54086;50.126;8.710;2022-07-06T04:56:19;17.11;64.57
67157;SHT31;54086;50.126;8.710;2022-07-06T04:58:45;17.08;64.98
67157;SHT31;54086;50.126;8.710;2022-07-06T05:01:10;17.16;64.53
67157;SHT31;54086;50.126;8.710;2022-07-06T05:03:35;17.04;64.81
67157;SHT31;54086;50.126;8.710;2022-07-06T05:06:05;17.07;64.91
67157;SHT31;54086;50.126;8.710;2022-07-06T05:08:30;17.02;65.20
67157;SHT31;54086;50.126;8.710;2022-07-06T05:10:56;17.31;64.51
67157;SHT31;54086;50.126;8.710;2022-07-06T05:13:21;17.22;64.60
67157;SHT31;54086;50.126;8.710;2022-07-06T05:15:47;17.42;64.07
67157;SHT31;54086;50.126;8.710;2022-07-06T05:18:12;17.49;64.09
67157;SHT31;54086;50.126;8.710;2022-07-06T05:20:37;17.29;64.40
67157;SHT31;54086;50.126;8.710;2022-07-06T05:23:03;17.40;64.14
67157;SHT31;54086;50.126;8.710;2022-07-06T05:25:28;17.47;64.06
67157;SHT31;54086;50.126;8.710;2022-07-06T05:27:58;17.19;64.82
67157;SHT31;54086;50.126;8.710;2022-07-06T05:30:23;17.29;64.61
67157;SHT31;54086;50.126;8.710;2022-07-06T05:32:48;17.47;64.04
67157;SHT31;54086;50.126;8.710;2022-07-06T05:35:14;17.42;64.21
67157;SHT31;54086;50.126;8.710;2022-07-06T05:37:39;17.36;64.19
67157;SHT31;54086;50.126;8.710;2022-07-06T05:40:05;17.65;63.68
67157;SHT31;54086;50.126;8.710;2022-07-06T05:42:31;17.66;63.75
67157;SHT31;54086;50.126;8.710;2022-07-06T05:44:56;17.94;63.24
67157;SHT31;54086;50.126;8.710;2022-07-06T05:47:22;17.98;62.93
67157;SHT31;54086;50.126;8.710;2022-07-06T05:50:06;18.11;62.35
67157;SHT31;54086;50.126;8.710;2022-07-06T05:52:39;17.89;62.99
67157;SHT31;54086;50.126;8.710;2022-07-06T05:55:05;17.97;62.89
67157;SHT31;54086;50.126;8.710;2022-07-06T05:57:30;18.27;62.14
67157;SHT31;54086;50.126;8.710;2022-07-06T05:59:56;18.38;61.63
67157;SHT31;54086;50.126;8.710;2022-07-06T06:02:22;18.24;61.53
67157;SHT31;54086;50.126;8.710;2022-07-06T06:04:47;18.31;61.40
67157;SHT31;54086;50.126;8.710;2022-07-06T06:07:12;18.35;61.23
67157;SHT31;54086;50.126;8.710;2022-07-06T06:09:38;18.27;61.67
67157;SHT31;54086;50.126;8.710;2022-07-06T06:12:03;18.15;62.02
67157;SHT31;54086;50.126;8.710;2022-07-06T06:14:29;18.32;61.78
67157;SHT31;54086;50.126;8.710;2022-07-06T06:16:54;18.42;61.55
67157;SHT31;54086;50.126;8.710;2022-07-06T06:19:20;18.51;61.08
67157;SHT31;54086;50.126;8.710;2022-07-06T06:21:45;18.58;60.55
67157;SHT31;54086;50.126;8.710;2022-07-06T06:24:11;18.47;60.58
67157;SHT31;54086;50.126;8.710;2022-07-06T06:26:36;18.42;60.98
67157;SHT31;54086;50.126;8.710;2022-07-06T06:29:02;18.52;61.08
67157;SHT31;54086;50.126;8.710;2022-07-06T06:31:27;18.53;60.81
67157;SHT31;54086;50.126;8.710;2022-07-06T06:33:53;18.31;61.36
67157;SHT31;54086;50.126;8.710;2022-07-06T06:36:18;18.53;60.50
67157;SHT31;54086;50.126;8.710;2022-07-06T06:38:44;18.42;61.08
67157;SHT31;54086;50.126;8.710;2022-07-06T06:41:09;18.77;60.43
67157;SHT31;54086;50.126;8.710;2022-07-06T06:43:34;19.03;59.48
67157;SHT31;54086;50.126;8.710;2022-07-06T06:46:00;19.00;59.61
67157;SHT31;54086;50.126;8.710;2022-07-06T06:48:25;19.27;59.07
67157;SHT31;54086;50.126;8.710;2022-07-06T06:50:51;19.33;58.47
67157;SHT31;54086;50.126;8.710;2022-07-06T06:53:16;19.41;58.09
67157;SHT31;54086;50.126;8.710;2022-07-06T06:55:41;19.24;58.38
67157;SHT31;54086;50.126;8.710;2022-07-06T06:58:07;19.51;57.77
67157;SHT31;54086;50.126;8.710;2022-07-06T07:00:32;19.47;58.05
67157;SHT31;54086;50.126;8.710;2022-07-06T07:02:58;19.47;57.90
67157;SHT31;54086;50.126;8.710;2022-07-06T07:05:23;19.33;58.65
67157;SHT31;54086;50.126;8.710;2022-07-06T07:07:48;19.33;58.53
67157;SHT31;54086;50.126;8.710;2022-07-06T07:10:14;19.09;59.35
67157;SHT31;54086;50.126;8.710;2022-07-06T07:12:47;19.00;59.52
67157;SHT31;54086;50.126;8.710;2022-07-06T07:15:13;19.20;59.08
67157;SHT31;54086;50.126;8.710;2022-07-06T07:17:39;19.30;59.42
67157;SHT31;54086;50.126;8.710;2022-07-06T07:20:05;19.43;58.77
67157;SHT31;54086;50.126;8.710;2022-07-06T07:22:31;19.26;58.37
67157;SHT31;54086;50.126;8.710;2022-07-06T07:24:56;18.93;59.34
67157;SHT31;54086;50.126;8.710;2022-07-06T07:27:24;19.10;58.54
67157;SHT31;54086;50.126;8.710;2022-07-06T07:29:50;19.03;58.94
67157;SHT31;54086;50.126;8.710;2022-07-06T07:32:15;19.19;58.65
67157;SHT31;54086;50.126;8.710;2022-07-06T07:34:40;19.00;59.37
67157;SHT31;54086;50.126;8.710;2022-07-06T07:37:06;19.21;59.20
67157;SHT31;54086;50.126;8.710;2022-07-06T07:39:31;19.60;58.08
67157;SHT31;54086;50.126;8.710;2022-07-06T07:41:57;19.74;57.46
67157;SHT31;54086;50.126;8.710;2022-07-06T07:44:22;19.49;58.05
67157;SHT31;54086;50.126;8.710;2022-07-06T07:46:47;19.70;57.66
67157;SHT31;54086;50.126;8.710;2022-07-06T07:49:13;20.10;56.16
67157;SHT31;54086;50.126;8.710;2022-07-06T07:51:39;20.10;55.07
67157;SHT31;54086;50.126;8.710;2022-07-06T07:54:05;19.72;55.86
67157;SHT31;54086;50.126;8.710;2022-07-06T07:56:31;19.50;56.09
67157;SHT31;54086;50.126;8.710;2022-07-06T07:58:56;19.14;57.31
67157;SHT31;54086;50.126;8.710;2022-07-06T08:01:21;19.21;56.69
67157;SHT31;54086;50.126;8.710;2022-07-06T08:03:47;19.46;56.38
67157;SHT31;54086;50.126;8.710;2022-07-06T08:06:12;19.65;55.61
67157;SHT31;54086;50.126;8.710;2022-07-06T08:08:38;19.65;55.53
67157;SHT31;54086;50.126;8.710;2022-07-06T08:11:03;19.74;55.32
67157;SHT31;54086;50.126;8.710;2022-07-06T08:13:28;20.06;54.44
67157;SHT31;54086;50.126;8.710;2022-07-06T08:15:54;19.78;54.91
67157;SHT31;54086;50.126;8.710;2022-07-06T08:18:19;19.58;55.07
67157;SHT31;54086;50.126;8.710;2022-07-06T08:20:44;19.72;54.76
67157;SHT31;54086;50.126;8.710;2022-07-06T08:23:10;19.98;54.26
67157;SHT31;54086;50.126;8.710;2022-07-06T08:25:35;20.10;53.65
67157;SHT31;54086;50.126;8.710;2022-07-06T08:28:01;20.28;52.94
67157;SHT31;54086;50.126;8.710;2022-07-06T08:30:26;20.19;52.70
67157;SHT31;54086;50.126;8.710;2022-07-06T08:32:52;20.15;53.11
67157;SHT31;54086;50.126;8.710;2022-07-06T08:35:17;20.73;52.43
67157;SHT31;54086;50.126;8.710;2022-07-06T08:37:43;20.77;51.85
67157;SHT31;54086;50.126;8.710;2022-07-06T08:40:09;20.76;51.76
67157;SHT31;54086;50.126;8.710;2022-07-06T08:42:35;20.59;52.16
67157;SHT31;54086;50.126;8.710;2022-07-06T08:45:05;20.69;51.58
67157;SHT31;54086;50.126;8.710;2022-07-06T08:47:31;20.90;51.05
67157;SHT31;54086;50.126;8.710;2022-07-06T08:49:57;21.05;51.06
67157;SHT31;54086;50.126;8.710;2022-07-06T08:52:23;21.77;49.15
67157;SHT31;54086;50.126;8.710;2022-07-06T08:54:49;22.01;48.17
67157;SHT31;54086;50.126;8.710;2022-07-06T08:57:14;21.45;49.56
67157;SHT31;54086;50.126;8.710;2022-07-06T08:59:40;21.77;48.73
67157;SHT31;54086;50.126;8.710;2022-07-06T09:02:05;21.34;49.89
67157;SHT31;54086;50.126;8.710;2022-07-06T09:04:33;21.92;48.33
67157;SHT31;54086;50.126;8.710;2022-07-06T09:07:00;22.57;47.45
67157;SHT31;54086;50.126;8.710;2022-07-06T09:09:25;22.06;48.26
67157;SHT31;54086;50.126;8.710;2022-07-06T09:11:53;21.66;48.73
67157;SHT31;54086;50.126;8.710;2022-07-06T09:14:18;21.85;48.48
67157;SHT31;54086;50.126;8.710;2022-07-06T09:16:52;20.92;51.02
67157;SHT31;54086;50.126;8.710;2022-07-06T09:19:18;21.50;49.09
67157;SHT31;54086;50.126;8.710;2022-07-06T09:21:44;22.25;47.83
67157;SHT31;54086;50.126;8.710;2022-07-06T09:24:12;22.76;46.69
67157;SHT31;54086;50.126;8.710;2022-07-06T09:26:39;22.11;47.78
67157;SHT31;54086;50.126;8.710;2022-07-06T09:29:06;21.73;48.50
67157;SHT31;54086;50.126;8.710;2022-07-06T09:31:32;21.41;49.26
67157;SHT31;54086;50.126;8.710;2022-07-06T09:33:58;21.72;48.59
67157;SHT31;54086;50.126;8.710;2022-07-06T09:36:49;21.21;49.74
67157;SHT31;54086;50.126;8.710;2022-07-06T09:39:25;21.24;50.09
67157;SHT31;54086;50.126;8.710;2022-07-06T09:41:54;20.98;50.16
67157;SHT31;54086;50.126;8.710;2022-07-06T09:44:25;20.76;50.79
67157;SHT31;54086;50.126;8.710;2022-07-06T09:46:52;20.95;50.06
67157;SHT31;54086;50.126;8.710;2022-07-06T09:49:19;21.02;49.78
67157;SHT31;54086;50.126;8.710;2022-07-06T09:51:47;20.94;49.92
67157;SHT31;54086;50.126;8.710;2022-07-06T09:54:13;20.51;50.70
67157;SHT31;54086;50.126;8.710;2022-07-06T09:56:40;20.91;50.38
67157;SHT31;54086;50.126;8.710;2022-07-06T09:59:14;21.65;49.27
67157;SHT31;54086;50.126;8.710;2022-07-06T10:01:40;22.08;47.53
67157;SHT31;54086;50.126;8.710;2022-07-06T10:04:07;21.96;47.32
67157;SHT31;54086;50.126;8.710;2022-07-06T10:06:33;21.89;47.35
67157;SHT31;54086;50.126;8.710;2022-07-06T10:09:00;22.03;46.90
67157;SHT31;54086;50.126;8.710;2022-07-06T10:11:28;21.90;46.70
67157;SHT31;54086;50.126;8.710;2022-07-06T10:13:56;22.01;45.85
67157;SHT31;54086;50.126;8.710;2022-07-06T10:16:23;22.68;44.55
67157;SHT31;54086;50.126;8.710;2022-07-06T10:18:50;22.64;43.92
67157;SHT31;54086;50.126;8.710;2022-07-06T10:21:19;22.37;44.29
67157;SHT31;54086;50.126;8.710;2022-07-06T10:23:45;23.12;43.14
67157;SHT31;54086;50.126;8.710;2022-07-06T10:26:11;23.49;42.27
67157;SHT31;54086;50.126;8.710;2022-07-06T10:28:37;21.89;44.55
67157;SHT31;54086;50.126;8.710;2022-07-06T10:31:03;21.38;45.64
67157;SHT31;54086;50.126;8.710;2022-07-06T10:33:30;21.69;45.25
67157;SHT31;54086;50.126;8.710;2022-07-06T10:35:57;22.92;43.01
67157;SHT31;54086;50.126;8.710;2022-07-06T10:38:31;23.65;41.18
67157;SHT31;54086;50.126;8.710;2022-07-06T10:41:07;23.37;40.39
67157;SHT31;54086;50.126;8.710;2022-07-06T10:46:14;24.80;38.67
67157;SHT31;54086;50.126;8.710;2022-07-06T10:48:41;24.11;39.08
67157;SHT31;54086;50.126;8.710;2022-07-06T10:51:08;24.05;39.82
67157;SHT31;54086;50.126;8.710;2022-07-06T10:53:40;23.77;40.25
67157;SHT31;54086;50.126;8.710;2022-07-06T10:56:10;23.19;40.78
67157;SHT31;54086;50.126;8.710;2022-07-06T10:58:47;23.58;40.55
67157;SHT31;54086;50.126;8.710;2022-07-06T11:01:14;23.85;40.35
67157;SHT31;54086;50.126;8.710;2022-07-06T11:11:38;25.39;37.30
67157;SHT31;54086;50.126;8.710;2022-07-06T11:14:06;25.18;37.31
67157;SHT31;54086;50.126;8.710;2022-07-06T11:16:34;24.97;37.89
67157;SHT31;54086;50.126;8.710;2022-07-06T11:19:11;25.65;36.69
67157;SHT31;54086;50.126;8.710;2022-07-06T11:21:45;25.71;36.80
67157;SHT31;54086;50.126;8.710;2022-07-06T11:24:25;25.48;37.24
67157;SHT31;54086;50.126;8.710;2022-07-06T11:26:52;25.75;36.20
67157;SHT31;54086;50.126;8.710;2022-07-06T11:29:20;26.09;35.32
67157;SHT31;54086;50.126;8.710;2022-07-06T11:31:47;26.02;34.96
67157;SHT31;54086;50.126;8.710;2022-07-06T11:34:18;25.92;35.21
67157;SHT31;54086;50.126;8.710;2022-07-06T11:36:43;25.72;36.18
67157;SHT31;54086;50.126;8.710;2022-07-06T11:39:09;26.19;34.86
67157;SHT31;54086;50.126;8.710;2022-07-06T11:41:35;25.79;35.18
67157;SHT31;54086;50.126;8.710;2022-07-06T11:44:02;26.27;34.96
67157;SHT31;54086;50.126;8.710;2022-07-06T11:46:29;26.23;34.96
67157;SHT31;54086;50.126;8.710;2022-07-06T11:49:00;25.27;36.12
67157;SHT31;54086;50.126;8.710;2022-07-06T11:51:28;26.50;34.98
67157;SHT31;54086;50.126;8.710;2022-07-06T11:53:56;26.92;33.71
67157;SHT31;54086;50.126;8.710;2022-07-06T11:56:23;27.16;33.36
67157;SHT31;54086;50.126;8.710;2022-07-06T11:58:56;25.11;35.39
67157;SHT31;54086;50.126;8.710;2022-07-06T12:01:23;23.68;37.92
67157;SHT31;54086;50.126;8.710;2022-07-06T12:03:49;24.19;37.30
67157;SHT31;54086;50.126;8.710;2022-07-06T12:06:22;24.80;36.74
67157;SHT31;54086;50.126;8.710;2022-07-06T12:08:50;25.73;34.80
67157;SHT31;54086;50.126;8.710;2022-07-06T12:11:20;26.23;35.65
67157;SHT31;54086;50.126;8.710;2022-07-06T12:13:46;26.27;33.86
67157;SHT31;54086;50.126;8.710;2022-07-06T12:16:13;26.72;33.48
67157;SHT31;54086;50.126;8.710;2022-07-06T12:18:39;26.22;33.34
67157;SHT31;54086;50.126;8.710;2022-07-06T12:21:08;27.28;32.18
67157;SHT31;54086;50.126;8.710;2022-07-06T12:23:44;27.12;32.40
67157;SHT31;54086;50.126;8.710;2022-07-06T12:26:11;27.03;32.51
67157;SHT31;54086;50.126;8.710;2022-07-06T12:28:37;27.18;32.32
67157;SHT31;54086;50.126;8.710;2022-07-06T12:31:03;26.67;32.26
67157;SHT31;54086;50.126;8.710;2022-07-06T12:33:28;26.39;32.27
67157;SHT31;54086;50.126;8.710;2022-07-06T12:35:54;25.04;34.77
67157;SHT31;54086;50.126;8.710;2022-07-06T12:38:24;25.54;34.95
67157;SHT31;54086;50.126;8.710;2022-07-06T12:40:49;26.40;33.17
67157;SHT31;54086;50.126;8.710;2022-07-06T12:43:37;25.41;34.98
67157;SHT31;54086;50.126;8.710;2022-07-06T12:46:23;25.68;35.04
67157;SHT31;54086;50.126;8.710;2022-07-06T12:49:01;26.07;34.20
67157;SHT31;54086;50.126;8.710;2022-07-06T12:51:27;27.36;32.64
67157;SHT31;54086;50.126;8.710;2022-07-06T12:53:56;27.49;32.63
67157;SHT31;54086;50.126;8.710;2022-07-06T12:56:36;28.01;31.24
67157;SHT31;54086;50.126;8.710;2022-07-06T12:59:01;26.84;32.37
67157;SHT31;54086;50.126;8.710;2022-07-06T13:01:27;26.92;31.96
67157;SHT31;54086;50.126;8.710;2022-07-06T13:03:56;25.97;33.63
67157;SHT31;54086;50.126;8.710;2022-07-06T13:06:34;26.58;33.81
67157;SHT31;54086;50.126;8.710;2022-07-06T13:09:02;27.09;32.68
67157;SHT31;54086;50.126;8.710;2022-07-06T13:11:28;28.22;32.03
67157;SHT31;54086;50.126;8.710;2022-07-06T13:13:53;29.09;30.45
67157;SHT31;54086;50.126;8.710;2022-07-06T13:16:18;29.11;30.07
67157;SHT31;54086;50.126;8.710;2022-07-06T13:18:44;28.80;29.98
67157;SHT31;54086;50.126;8.710;2022-07-06T13:21:09;26.60;33.16
67157;SHT31;54086;50.126;8.710;2022-07-06T13:23:36;26.22;33.46
67157;SHT31;54086;50.126;8.710;2022-07-06T13:26:01;25.13;34.31
67157;SHT31;54086;50.126;8.710;2022-07-06T13:28:27;26.91;32.66
67157;SHT31;54086;50.126;8.710;2022-07-06T13:30:52;28.02;31.27
67157;SHT31;54086;50.126;8.710;2022-07-06T13:33:20;28.21;31.25
67157;SHT31;54086;50.126;8.710;2022-07-06T13:35:46;27.91;31.28
67157;SHT31;54086;50.126;8.710;2022-07-06T13:38:11;27.57;32.09
67157;SHT31;54086;50.126;8.710;2022-07-06T13:40:37;27.49;32.07
67157;SHT31;54086;50.126;8.710;2022-07-06T13:43:02;26.57;34.09
67157;SHT31;54086;50.126;8.710;2022-07-06T13:45:27;26.24;34.98
67157;SHT31;54086;50.126;8.710;2022-07-06T13:47:53;27.08;34.25
67157;SHT31;54086;50.126;8.710;2022-07-06T13:50:18;27.36;33.56
67157;SHT31;54086;50.126;8.710;2022-07-06T13:52:43;27.02;33.98
67157;SHT31;54086;50.126;8.710;2022-07-06T13:55:09;27.03;34.31
67157;SHT31;54086;50.126;8.710;2022-07-06T13:57:35;26.17;34.84
67157;SHT31;54086;50.126;8.710;2022-07-06T14:00:00;26.61;34.86
67157;SHT31;54086;50.126;8.710;2022-07-06T14:02:26;26.74;34.59
67157;SHT31;54086;50.126;8.710;2022-07-06T14:04:51;27.45;33.17
67157;SHT31;54086;50.126;8.710;2022-07-06T14:07:17;28.18;32.49
67157;SHT31;54086;50.126;8.710;2022-07-06T14:09:42;28.45;31.88
67157;SHT31;54086;50.126;8.710;2022-07-06T14:12:08;27.63;32.72
67157;SHT31;54086;50.126;8.710;2022-07-06T14:14:33;27.06;33.84
67157;SHT31;54086;50.126;8.710;2022-07-06T14:16:59;25.75;36.18
67157;SHT31;54086;50.126;8.710;2022-07-06T14:19:24;24.98;36.81
67157;SHT31;54086;50.126;8.710;2022-07-06T14:21:51;25.07;36.45
67157;SHT31;54086;50.126;8.710;2022-07-06T14:24:16;25.00;37.15
67157;SHT31;54086;50.126;8.710;2022-07-06T14:26:42;26.43;35.02
67157;SHT31;54086;50.126;8.710;2022-07-06T14:29:07;27.13;34.20
67157;SHT31;54086;50.126;8.710;2022-07-06T14:31:33;26.95;34.21
67157;SHT31;54086;50.126;8.710;2022-07-06T14:33:58;26.19;35.02
67157;SHT31;54086;50.126;8.710;2022-07-06T14:36:23;25.72;36.09
67157;SHT31;54086;50.126;8.710;2022-07-06T14:38:49;25.21;36.38
67157;SHT31;54086;50.126;8.710;2022-07-06T14:41:14;25.25;36.59
67157;SHT31;54086;50.126;8.710;2022-07-06T14:43:39;25.17;36.47
67157;SHT31;54086;50.126;8.710;2022-07-06T14:46:05;24.84;36.80
67157;SHT31;54086;50.126;8.710;2022-07-06T14:48:31;24.95;37.09
67157;SHT31;54086;50.126;8.710;2022-07-06T14:50:56;24.12;38.01
67157;SHT31;54086;50.126;8.710;2022-07-06T14:53:23;24.24;38.54
67157;SHT31;54086;50.126;8.710;2022-07-06T14:55:48;24.11;38.25
67157;SHT31;54086;50.126;8.710;2022-07-06T14:58:14;23.81;38.31
67157;SHT31;54086;50.126;8.710;2022-07-06T15:00:43;23.73;38.61
67157;SHT31;54086;50.126;8.710;2022-07-06T15:03:08;23.51;38.72
67157;SHT31;54086;50.126;8.710;2022-07-06T15:05:34;23.61;38.34
67157;SHT31;54086;50.126;8.710;2022-07-06T15:07:59;23.43;38.61
67157;SHT31;54086;50.126;8.710;2022-07-06T15:10:24;23.47;38.72
67157;SHT31;54086;50.126;8.710;2022-07-06T15:12:50;23.49;38.31
67157;SHT31;54086;50.126;8.710;2022-07-06T15:15:15;23.46;38.48
67157;SHT31;54086;50.126;8.710;2022-07-06T15:17:41;23.17;38.74
67157;SHT31;54086;50.126;8.710;2022-07-06T15:20:06;23.71;38.65
67157;SHT31;54086;50.126;8.710;2022-07-06T15:22:32;23.65;38.53
67157;SHT31;54086;50.126;8.710;2022-07-06T15:24:59;23.23;39.58
67157;SHT31;54086;50.126;8.710;2022-07-06T15:27:24;23.61;39.65
67157;SHT31;54086;50.126;8.710;2022-07-06T15:29:49;23.78;38.41
67157;SHT31;54086;50.126;8.710;2022-07-06T15:32:15;23.68;38.62
67157;SHT31;54086;50.126;8.710;2022-07-06T15:34:40;23.46;38.46
67157;SHT31;54086;50.126;8.710;2022-07-06T15:37:06;23.43;38.51
67157;SHT31;54086;50.126;8.710;2022-07-06T15:39:31;23.97;38.07